x

Muskegon, Mi (mkgm4) Weather Station

11:50am - Fri 6th May 2016 All times are CDT. -5 hours from GMT.

  • Wind
    14mph, 15mph gusts
  • Air Temp 52°f
  • Sea Pressure 1015.6mb
  • Muskegon, Mi
  • Muskegon, Mi

More Historic Weather Station data

Upgrade to MSW Pro to gain access to the past 30 days of data for over 8000 Wavebouys and Weather Stations around the globe.

Join Pro

Comparision Forecast

View Surf forecast
   
Fri 05/06 11:50am 14 15 mph 1015.6mb 52f
11:40am 15 16 mph 1015.8mb 52f
11:30am 16 18 mph 1015.8mb 51f
11:20am 17 18 mph 1016mb 51f
11:10am 15 17 mph 1016.1mb 51f
11:00am 15 17 mph 1016.2mb 51f
10:50am 15 16 mph 1016.3mb 51f
10:40am 13 15 mph 1016.3mb 50f
10:30am 15 16 mph 1016.2mb 50f
10:20am 15 16 mph 1016.2mb 50f
10:10am 14 16 mph 1016.2mb 50f
10:00am 14 16 mph 1016.2mb 50f
9:50am 13 14 mph 1016.5mb 49f
9:40am 13 15 mph 1016.4mb 49f
9:30am 11 13 mph 1016.6mb 49f
9:20am 10 11 mph 1016.7mb 49f
9:10am 9 10 mph 1016.6mb 49f
9:00am 10 11 mph 1016.7mb 48f
8:50am 10 11 mph 1016.7mb 48f
8:40am 11 13 mph 1016.7mb 47f
8:30am 10 11 mph 1016.5mb 47f
8:20am 9 11 mph 1016.7mb 47f
8:10am 9 10 mph 1016.7mb 47f
8:00am 9 10 mph 1016.4mb 47f
7:50am 8
mph
1016.7mb 47f
7:40am 7 8 mph 1016.7mb 47f
7:30am 7
mph
1016.7mb 47f
7:20am 6 7 mph 1016.7mb 46f
7:10am 7
mph
1016.6mb 46f
7:00am 6 7 mph 1016.5mb 46f
6:50am 6 8 mph 1016.4mb 45f
6:40am 6
mph
1016.3mb 45f
6:30am 5
mph
1016.3mb 45f
5:40am 2
mph
1016.4mb 42f
5:30am 1
mph
1016.4mb 42f
5:20am 1
mph
1016.3mb 41f
5:10am 2
mph
1016.2mb 41f
5:00am 1 2 mph 1016mb 42f
4:50am  -  1 mph 1016.1mb 41f
4:40am  -  mph 1015.9mb 42f
4:30am  -  1 mph 1015.8mb 44f
4:20am 3
mph
1015.8mb 44f
4:10am 3
mph
1016mb 44f
4:00am 3 5 mph 1016.1mb 44f
3:50am 2
mph
1016mb 41f
3:40am 1
mph
1016mb 42f
3:30am 3 5 mph 1016.2mb 43f
3:20am 3
mph
1016mb 44f
3:10am 1 2 mph 1015.8mb 44f
3:00am 3 5 mph 1015.8mb 44f
2:50am 5
mph
1016mb 44f
2:40am 5 6 mph 1016.1mb 44f
2:30am 5
mph
1016.1mb 44f
2:20am 3 5 mph 1016mb 44f
2:10am 2 3 mph 1015.8mb 44f
2:00am 5 6 mph 1016.2mb 44f
1:50am 8 9 mph 1016.3mb 44f
1:40am 6 7 mph 1016.1mb 44f
1:30am 7 8 mph 1016.2mb 44f
1:20am 8 9 mph 1016.3mb 44f
1:10am 6 9 mph 1016.1mb 44f
1:00am 6 7 mph 1016.1mb 44f
12:50am 5 6 mph 1016mb 45f
12:40am 5
mph
1016mb 45f
12:30am 5 6 mph 1016mb 44f
12:20am 2
mph
1016mb 44f
12:10am 2 3 mph 1016mb 44f
12:00am 7
mph
1016mb 45f
Thu 05/05 11:50pm 7 8 mph 1016mb 45f
11:40pm 7 8 mph 1015.9mb 45f
11:30pm 6
mph
1015.9mb 46f
11:20pm 5 6 mph 1015.9mb 46f
11:10pm 2
mph
1015.9mb 45f
11:00pm 3
mph
1015.9mb 46f
10:50pm 3
mph
1015.9mb 46f
10:40pm 3
mph
1015.8mb 47f
10:30pm 3 5 mph 1015.8mb 47f
10:20pm 5 6 mph 1016mb 49f
10:10pm 2
mph
1016mb 48f
10:00pm 1
mph
1016mb 48f
9:50pm 1 2 mph 1015.8mb 49f
9:40pm  -  mph 1015.8mb 48f
9:30pm 2 3 mph 1015.7mb 49f
9:20pm 2 3 mph 1015.5mb 49f
9:10pm 1 2 mph 1015.5mb 49f
9:00pm 5 6 mph 1015.5mb 49f
8:50pm 5 6 mph 1015.6mb 47f
8:40pm 5 6 mph 1015.5mb 47f
8:30pm 6
mph
1015.5mb 48f
8:20pm 3 5 mph 1015.3mb 48f
8:10pm 3 5 mph 1015.4mb 48f
8:00pm 6
mph
1015.3mb 48f
7:50pm 6 7 mph 1015.2mb 48f
7:40pm 10 11 mph 1015.5mb 48f
7:30pm 10 11 mph 1015.5mb 48f
7:20pm 10 11 mph 1015.4mb 49f
7:10pm 9 11 mph 1015.1mb 51f
7:00pm 11 13 mph 1015.3mb 49f
6:50pm 16 18 mph 1015.4mb 49f
6:40pm 18 21 mph 1015.4mb 49f
6:30pm 20 22 mph 1015.4mb 49f
6:20pm 18 21 mph 1015.3mb 50f
6:10pm 18 21 mph 1015.2mb 49f
6:00pm 20 24 mph 1015.3mb 49f
5:50pm 17 22 mph 1015.3mb 49f
5:40pm 18 22 mph 1015.3mb 49f
5:30pm 20 23 mph 1015.4mb 48f
5:20pm 21 22 mph 1015.6mb 48f
5:10pm 18 20 mph 1015.6mb 48f
5:00pm 18 22 mph 1015.6mb 48f
4:50pm 20 23 mph 1015.6mb 48f
4:40pm 20 22 mph 1015.6mb 48f
4:30pm 17 23 mph 1015.6mb 48f
4:20pm 17 21 mph 1015.8mb 48f
4:10pm 22 24 mph 1015.8mb 47f
4:00pm 21 23 mph 1015.8mb 48f
3:50pm 20 23 mph 1015.9mb 47f
3:40pm 18 23 mph 1016mb 47f
3:30pm 18 22 mph 1016mb 47f
3:20pm 23 26 mph 1016.2mb 46f
3:10pm 22 25 mph 1016.2mb 47f
3:00pm 24 26 mph 1016.3mb 47f
2:50pm 21 24 mph 1016.4mb 46f
2:40pm 22 25 mph 1016.4mb 47f
2:30pm 24 26 mph 1016.4mb 46f
2:20pm 23 26 mph 1016.4mb 46f
2:10pm 25 26 mph 1016.2mb 46f
2:00pm 22 24 mph 1016.2mb 46f
1:50pm 24 28 mph 1016.2mb 46f
1:40pm 24 28 mph 1016.2mb 46f
1:30pm 25 29 mph 1016.2mb 46f
1:20pm 25 28 mph 1016.2mb 46f
1:10pm 26 28 mph 1016.4mb 46f
1:00pm 23 26 mph 1016.3mb 46f
12:50pm 25 26 mph 1016.4mb 46f
12:40pm 24 26 mph 1016.4mb 46f
12:30pm 18 21 mph 1016.5mb 46f
12:20pm 21 25 mph 1016.4mb 46f
12:10pm 23 25 mph 1016.4mb 46f
12:00pm 22 24 mph 1016.5mb 46f
11:50am 18 22 mph 1016.5mb 46f
11:40am 21 23 mph 1016.7mb 45f
11:30am 18 20 mph 1016.7mb 46f
11:20am 16 18 mph 1016.7mb 46f
11:10am 17 20 mph 1016.7mb 46f
11:00am 15 17 mph 1016.7mb 46f
10:50am 14 16 mph 1016.5mb 46f
10:40am 14 18 mph 1016.4mb 46f
10:30am 16 17 mph 1016.5mb 46f
10:20am 14 16 mph 1016.5mb 46f
10:10am 14 15 mph 1016.4mb 47f
10:00am 9 13 mph 1016.2mb 49f
9:50am 5 6 mph 1016mb 54f
9:40am 2 5 mph 1016mb 53f
9:30am 3 6 mph 1016mb 53f
9:20am 3 6 mph 1016.1mb 52f
9:10am 3 6 mph 1015.9mb 51f
9:00am 8 10 mph 1015.8mb 51f
8:50am 8 10 mph 1015.9mb 50f
8:40am 8 9 mph 1015.8mb 49f
8:30am 7 9 mph 1015.9mb 48f
8:20am 8 9 mph 1015.7mb 48f
8:10am 8 9 mph 1015.6mb 47f
8:00am 8 10 mph 1015.4mb 47f
7:50am 8 9 mph 1015.4mb 46f
7:40am 8 9 mph 1015.2mb 45f
7:30am 7 8 mph 1015.3mb 44f
7:20am 7 10 mph 1015.3mb 44f
7:10am 7 11 mph 1015.2mb 43f
7:00am 9 13 mph 1015.3mb 42f
6:50am 8 9 mph 1015.2mb 41f
6:40am 7 9 mph 1015mb 41f
6:30am 8 9 mph 1014.9mb 41f
5:40am 10 13 mph 1014.1mb 40f
5:30am 9 13 mph 1013.9mb 40f
5:20am 9 10 mph 1013.7mb 40f
5:10am 8 11 mph 1013.7mb 40f
5:00am 9 11 mph 1013.7mb 41f
4:50am 9 11 mph 1013.6mb 41f
4:40am 8 10 mph 1013.5mb 41f
4:30am 7 9 mph 1013.6mb 41f
4:20am 9 13 mph 1013.4mb 41f
4:10am 10 13 mph 1013.4mb 42f
4:00am 11 14 mph 1013.3mb 42f
3:50am 9 14 mph 1013.2mb 42f
3:40am 8 9 mph 1013mb 42f
3:30am 8 10 mph 1013mb 41f
3:20am 8 10 mph 1013mb 41f
3:10am 8 11 mph 1013.1mb 42f
3:00am 6 8 mph 1013.1mb 42f
2:50am 7 9 mph 1013mb 42f
2:40am 6 7 mph 1013mb 42f
2:30am 8 13 mph 1012.8mb 42f
2:20am 8 11 mph 1012.8mb 42f
2:10am 9 13 mph 1012.8mb 42f
2:00am 11 15 mph 1012.8mb 42f
1:50am 8 10 mph 1012.9mb 42f
1:40am 8 14 mph 1012.9mb 42f
1:30am 10 15 mph 1013mb 42f
1:20am 8 11 mph 1013.1mb 42f
1:10am 9 11 mph 1013.1mb 42f
1:00am 10 15 mph 1012.9mb 41f
12:50am 10 14 mph 1012.7mb 41f
12:40am 10 14 mph 1012.7mb 41f
12:30am 9 10 mph 1012.7mb 42f
12:20am 14 20 mph 1012.5mb 41f
12:10am 11 14 mph 1012.4mb 41f
12:00am 13 16 mph 1012.4mb 41f
Wed 05/04 11:50pm 11 16 mph 1012.4mb 41f
11:40pm 9 14 mph 1012.4mb 41f
11:30pm 10 17 mph 1012.1mb 41f
11:20pm 14 17 mph 1012mb 41f
11:10pm 10 16 mph 1012.1mb 41f
11:00pm 14 18 mph 1012.1mb 41f
10:50pm 14 16 mph 1011.9mb 41f
10:40pm 10 15 mph 1012.1mb 41f
10:30pm 10 14 mph 1012.1mb 41f
10:20pm 13 16 mph 1012.1mb 41f
10:10pm 11 18 mph 1011.9mb 41f
10:00pm 11 16 mph 1011.8mb 41f
9:50pm 11 15 mph 1011.8mb 41f
9:40pm 13 18 mph 1011.5mb 41f
9:30pm 14 17 mph 1011.5mb 41f
9:20pm 15 18 mph 1011.5mb 41f
9:10pm 17 23 mph 1011.2mb 41f
9:00pm 14 17 mph 1011.2mb 41f
8:50pm 16 20 mph 1010.9mb 41f
8:40pm 13 15 mph 1010.9mb 41f
8:30pm 17 21 mph 1010.9mb 41f
8:20pm 17 24 mph 1010.8mb 41f
8:10pm 14 18 mph 1010.8mb 41f
8:00pm 18 23 mph 1010.8mb 41f
7:50pm 18 22 mph 1010.6mb 41f
7:40pm 14 22 mph 1010.4mb 41f
7:30pm 18 23 mph 1010.3mb 41f
7:20pm 16 22 mph 1010.3mb 41f
7:10pm 16 22 mph 1010.1mb 41f
7:00pm 18 22 mph 1010mb 41f
6:50pm 17 23 mph 1009.8mb 41f
6:40pm 17 24 mph 1009.8mb 41f
6:30pm 17 23 mph 1009.8mb 41f
6:20pm 15 21 mph 1009.7mb 41f
6:10pm 15 18 mph 1009.6mb 41f
6:00pm 14 18 mph 1009.6mb 42f
5:50pm 16 24 mph 1009.5mb 41f
5:40pm 17 24 mph 1009.4mb 42f
5:30pm 20 24 mph 1009.1mb 42f
5:20pm 17 23 mph 1009.1mb 42f
5:10pm 16 21 mph 1009mb 42f
5:00pm 18 26 mph 1008.8mb 42f
4:50pm 23 26 mph 1008.7mb 42f
4:40pm 21 28 mph 1008.6mb 42f
4:30pm 18 25 mph 1008.5mb 42f
4:20pm 18 24 mph 1008.4mb 42f
4:10pm 22 26 mph 1008.2mb 42f
4:00pm 20 25 mph 1008.1mb 42f
3:50pm 17 22 mph 1008.1mb 41f
3:40pm 18 23 mph 1008mb 41f
3:30pm 20 23 mph 1007.9mb 41f
3:20pm 21 32 mph 1007.7mb 41f
3:10pm 23 36 mph 1007.7mb 41f
3:00pm 23 28 mph 1007.7mb 41f
2:50pm 21 25 mph 1007.5mb 41f
2:40pm 23 29 mph 1007.5mb 41f
2:30pm 23 28 mph 1007.6mb 41f
2:20pm 24 30 mph 1007.5mb 41f
2:10pm 23 31 mph 1007.5mb 41f
2:00pm 22 30 mph 1007.4mb 41f
1:50pm 22 26 mph 1007.4mb 41f
1:40pm 21 26 mph 1007.4mb 41f
1:30pm 22 30 mph 1007.4mb 41f
1:20pm 28 33 mph 1007.4mb 41f
1:10pm 21 30 mph 1007.2mb 42f
1:00pm 23 28 mph 1007.1mb 43f
12:50pm 22 28 mph 1006.9mb 43f
12:40pm 22 25 mph 1006.9mb 43f
12:30pm 25 32 mph 1006.9mb 44f
12:20pm 17 23 mph 1006.9mb 44f
12:10pm 22 28 mph 1006.9mb 43f
12:00pm 25 31 mph 1006.9mb 44f
11:50am 22 32 mph 1006.8mb 44f
11:40am 17 24 mph 1006.6mb 44f
11:30am 21 28 mph 1006.6mb 44f
11:20am 18 23 mph 1006.5mb 44f
11:10am 17 24 mph 1006.4mb 44f
11:00am 20 25 mph 1006.2mb 44f
10:50am 18 22 mph 1006.2mb 44f
10:40am 21 28 mph 1006.2mb 44f
10:30am 14 18 mph 1006.2mb 44f
10:20am 18 24 mph 1006.2mb 43f
10:10am 18 23 mph 1006.2mb 43f
10:00am 15 21 mph 1006mb 44f
9:50am 14 18 mph 1006mb 44f
9:40am 14 18 mph 1005.9mb 43f
9:30am 15 18 mph 1005.7mb 43f
9:20am 15 20 mph 1005.7mb 43f
9:10am 14 20 mph 1005.6mb 44f
9:00am 16 22 mph 1005.5mb 43f
8:50am 16 22 mph 1005.5mb 43f
8:40am 13 17 mph 1005.4mb 43f
8:30am 17 21 mph 1005.2mb 43f
8:20am 14 18 mph 1005.2mb 43f
8:10am 14 18 mph 1005.2mb 42f
8:00am 17 22 mph 1005.1mb 42f
7:50am 15 21 mph 1005.2mb 42f
7:40am 18 25 mph 1005.2mb 42f
7:30am 17 23 mph 1005.1mb 42f
7:20am 14 18 mph 1005.1mb 42f
7:10am 18 23 mph 1005.1mb 42f
7:00am 14 16 mph 1005mb 42f
5:40am 15 18 mph 1004mb 45f
5:30am 17 22 mph 1003.8mb 45f
5:20am 16 20 mph 1003.6mb 46f
5:10am 11 16 mph 1003.6mb 46f
5:00am 14 18 mph 1003.5mb 46f
4:50am 14 16 mph 1003.6mb 46f
4:40am 10 14 mph 1003.6mb 46f
4:30am 8 10 mph 1003.7mb 46f
4:20am 8 11 mph 1003.7mb 46f
4:10am 9 11 mph 1003.7mb 46f
4:00am 14 16 mph 1003.6mb 46f
3:50am 13 16 mph 1003.7mb 47f
3:40am 16 18 mph 1003.9mb 47f
3:30am 16 20 mph 1003.9mb 47f
3:20am 17 22 mph 1003.9mb 47f
3:10am 10 14 mph 1003.9mb 47f
3:00am 13 14 mph 1003.9mb 47f
2:50am 9 11 mph 1003.7mb 46f
2:40am 10 13 mph 1003.9mb 46f
2:30am 11 14 mph 1003.9mb 46f
2:20am 10 13 mph 1003.9mb 46f
2:10am 14 16 mph 1004.2mb 46f
2:00am 13 14 mph 1004.2mb 47f
1:50am 3
mph
1004.3mb 48f
1:40am 3 5 mph 1004.5mb 47f
1:30am 3 6 mph 1004.5mb 48f
1:20am 3
mph
1004.4mb 48f
1:10am 1 5 mph 1004.6mb 48f
1:00am 2 5 mph 1004.4mb 50f
12:50am 5 6 mph 1004.2mb 50f
12:40am 2 3 mph 1004.1mb 50f
12:30am 2
mph
1004.1mb 50f
12:20am 5 7 mph 1004.2mb 50f
12:10am 6
mph
1004.3mb 49f
12:00am 7 8 mph 1004.3mb 49f
Tue 05/03 11:50pm 5 7 mph 1004.7mb 50f
11:40pm 7
mph
1005.2mb 48f
11:30pm 5 6 mph 1005.7mb 48f
11:20pm 7
mph
1005.9mb 48f
11:10pm 6
mph
1006mb 48f
11:00pm 3 5 mph 1006mb 48f
10:50pm 3 5 mph 1006mb 48f
10:40pm 2
mph
1006.3mb 48f
10:30pm 1 2 mph 1006.7mb 48f
10:20pm 6 7 mph 1006.8mb 49f
10:10pm 6 8 mph 1007mb 49f
10:00pm 10 20 mph 1007.1mb 48f
9:50pm 11 14 mph 1006.5mb 48f
9:40pm 14 15 mph 1006.7mb 48f
9:30pm 16 17 mph 1006.7mb 48f
9:20pm 15 16 mph 1006.8mb 48f
9:10pm 15 16 mph 1006.8mb 48f
9:00pm 16 17 mph 1007mb 48f
8:50pm 16 17 mph 1007.2mb 48f
8:40pm 15 16 mph 1007.3mb 48f
8:30pm 16 17 mph 1007.3mb 48f
8:20pm 16 17 mph 1007.4mb 48f
8:10pm 16 17 mph 1007.6mb 48f
8:00pm 18 22 mph 1007.6mb 49f
7:50pm 18 21 mph 1007.6mb 49f
7:40pm 17 18 mph 1007.8mb 48f
7:30pm 17 18 mph 1008mb 48f
7:20pm 16 17 mph 1008.2mb 48f
7:10pm 16 18 mph 1008.2mb 48f
7:00pm 16
mph
1008.3mb 48f
6:50pm 16 17 mph 1008.4mb 48f
6:40pm 16 17 mph 1008.4mb 48f
6:30pm 16 17 mph 1008.4mb 48f
6:20pm 17 20 mph 1008.7mb 48f
6:10pm 17 18 mph 1008.9mb 48f
6:00pm 17 18 mph 1008.9mb 48f
5:50pm 17 18 mph 1009mb 48f
5:40pm 17 20 mph 1009.3mb 48f
5:30pm 17 18 mph 1009.5mb 49f
5:20pm 16 18 mph 1009.5mb 49f
5:10pm 16 18 mph 1009.4mb 49f
5:00pm 16 18 mph 1009.5mb 50f
4:50pm 18 20 mph 1009.7mb 50f
4:40pm 17 18 mph 1009.7mb 50f
4:30pm 17 20 mph 1009.9mb 50f
4:20pm 17 20 mph 1009.9mb 50f
4:10pm 17 18 mph 1010.1mb 50f
4:00pm 17 18 mph 1010.2mb 51f
3:50pm 16 18 mph 1010.5mb 51f
3:40pm 17 18 mph 1010.6mb 51f
3:30pm 16 17 mph 1010.8mb 52f
3:20pm 16 17 mph 1011mb 51f
3:10pm 16 17 mph 1011mb 52f
3:00pm 17 18 mph 1011.1mb 51f
2:50pm 16 18 mph 1011.2mb 51f
2:40pm 16 18 mph 1011.3mb 51f
2:30pm 16 17 mph 1011.5mb 51f
2:20pm 15 18 mph 1011.6mb 51f
2:10pm 15 17 mph 1011.8mb 51f
2:00pm 15 17 mph 1012.1mb 51f
1:50pm 14 16 mph 1012.2mb 51f
1:40pm 14 15 mph 1012.3mb 50f
1:30pm 14 15 mph 1012.4mb 50f
1:20pm 15 16 mph 1012.5mb 51f
1:10pm 16 17 mph 1012.6mb 51f
1:00pm 15 17 mph 1012.8mb 51f
12:50pm 16 18 mph 1013mb 51f
12:40pm 16 17 mph 1013mb 51f
12:30pm 15 17 mph 1013.2mb 51f
12:20pm 16 17 mph 1013.2mb 51f
12:10pm 14 15 mph 1013.3mb 50f
12:00pm 14 15 mph 1013.4mb 50f
11:50am 13 14 mph 1013.6mb 50f
11:40am 11 13 mph 1013.7mb 50f
11:30am 11 13 mph 1013.8mb 49f
11:20am 11 13 mph 1014mb 50f
11:10am 13
mph
1014.1mb 49f
11:00am 13 14 mph 1014.3mb 49f
10:50am 11 13 mph 1014.4mb 49f
10:40am 11 13 mph 1014.5mb 48f
10:30am 11 13 mph 1014.5mb 49f
10:20am 11 14 mph 1014.7mb 48f
10:10am 11 13 mph 1014.8mb 48f
10:00am 11 13 mph 1014.9mb 47f
9:50am 10 11 mph 1014.9mb 47f
9:40am 9 10 mph 1014.9mb 47f
9:30am 9 10 mph 1014.9mb 46f
9:20am 8 9 mph 1015.2mb 46f
9:10am 8 9 mph 1015.2mb 46f
9:00am 8 9 mph 1015.2mb 46f
8:50am 9
mph
1015.3mb 46f
8:40am 8 9 mph 1015.3mb 46f
8:30am 7 8 mph 1015.3mb 46f
8:20am 7
mph
1015.3mb 46f
8:10am 6 7 mph 1015.3mb 46f
8:00am 7
mph
1015.5mb 46f
7:50am 6 7 mph 1015.5mb 45f
7:40am 6
mph
1015.6mb 45f
7:30am 5 6 mph 1015.5mb 46f
7:20am 5 6 mph 1015.6mb 45f
7:10am 3
mph
1015.6mb 45f
7:00am 2
mph
1015.7mb 45f
6:50am 2
mph
1015.7mb 45f
6:40am 2 3 mph 1015.7mb 45f
6:30am 1 2 mph 1015.7mb 45f
5:40am  -  1 mph 1015.9mb 40f
5:30am 2
mph
1015.9mb 41f
5:20am 2
mph
1015.9mb 41f
5:10am 2 3 mph 1015.8mb 41f
5:00am 2
mph
1015.7mb 43f
4:50am 2
mph
1015.7mb 43f
4:40am 2 3 mph 1015.7mb 44f
4:30am 3 5 mph 1015.7mb 44f
4:20am 6 7 mph 1015.7mb 44f
4:10am 3
mph
1015.7mb 44f
4:00am 5 6 mph 1016mb 44f
3:50am 6
mph
1016mb 44f
3:40am 5 6 mph 1016mb 44f
3:30am 5
mph
1016mb 44f
3:20am 3 5 mph 1016mb 44f
3:10am 2 3 mph 1016mb 44f
3:00am 2
mph
1015.9mb 45f
2:50am 5
mph
1015.9mb 45f
2:40am 5
mph
1016mb 44f
2:30am 6 8 mph 1016.2mb 45f
2:20am 5 7 mph 1016.2mb 45f
2:10am 6 7 mph 1016.3mb 43f
2:00am 7
mph
1016.3mb 43f
1:50am 6
mph
1016.3mb 44f
1:40am 6 7 mph 1016.3mb 44f
1:30am 6
mph
1016.3mb 44f
1:20am 6
mph
1016.3mb 44f
1:10am 5
mph
1016.3mb 44f
1:00am 2
mph
1016.4mb 44f
12:50am 2
mph
1016.6mb 44f
12:40am 2
mph
1016.6mb 44f
12:30am 3
mph
1016.6mb 44f
12:20am 2
mph
1016.7mb 44f
12:10am 3
mph
1017mb 44f
12:00am 6
mph
1016.9mb 44f
Mon 05/02 11:50pm 5
mph
1016.9mb 44f
11:40pm 3
mph
1016.9mb 44f
11:30pm 2
mph
1016.9mb 44f
11:20pm 3
mph
1016.9mb 44f
11:10pm 2 3 mph 1016.9mb 44f
11:00pm 2
mph
1016.9mb 44f
10:50pm 1 2 mph 1017.2mb 44f
10:40pm 1 2 mph 1017.1mb 45f
10:30pm 2
mph
1017.2mb 46f
10:20pm 2
mph
1017.2mb 46f
10:10pm 2 3 mph 1017.4mb 46f
10:00pm 2 3 mph 1017.5mb 46f
9:50pm 5 6 mph 1017.5mb 46f
9:40pm 5 6 mph 1017.5mb 46f
9:30pm 5 6 mph 1017.5mb 45f
9:20pm 6 7 mph 1017.3mb 45f
9:10pm 6
mph
1017.4mb 45f
9:00pm 5
mph
1017.3mb 46f
8:50pm 2 3 mph 1017.3mb 46f
8:40pm 5 6 mph 1017.3mb 46f
8:30pm 5 6 mph 1017.3mb 46f
8:20pm 6
mph
1017.2mb 46f
8:10pm 5
mph
1017.3mb 47f
8:00pm 2 3 mph 1017.1mb 47f
7:50pm 1
mph
1017.3mb 47f
7:40pm 2 3 mph 1017.3mb 48f
7:30pm 3
mph
1017.2mb 48f
7:20pm 5 6 mph 1017.3mb 47f
7:10pm 2 3 mph 1017.3mb 47f
7:00pm 3
mph
1017.3mb 47f
6:50pm 2 3 mph 1017.1mb 47f
6:40pm 2
mph
1017.2mb 47f
6:30pm 3
mph
1017.1mb 47f
6:20pm 3
mph
1017.1mb 48f
6:10pm 3 5 mph 1017.4mb 48f
6:00pm 3
mph
1017.3mb 47f
5:50pm 3 5 mph 1017.3mb 47f
5:40pm 5
mph
1017.3mb 47f